sensor_id;sensor_type;location;lat;lon;timestamp;P1;durP1;ratioP1;P2;durP2;ratioP2
43337;SDS011;28933;52.492;13.434;2023-07-29T00:02:20;9.50;;;4.13;;
43337;SDS011;28933;52.492;13.434;2023-07-29T00:05:07;5.70;;;4.30;;
43337;SDS011;28933;52.492;13.434;2023-07-29T00:07:53;5.95;;;3.88;;
43337;SDS011;28933;52.492;13.434;2023-07-29T00:10:39;6.75;;;3.90;;
43337;SDS011;28933;52.492;13.434;2023-07-29T00:13:25;6.47;;;4.38;;
43337;SDS011;28933;52.492;13.434;2023-07-29T00:16:11;6.00;;;4.07;;
43337;SDS011;28933;52.492;13.434;2023-07-29T00:18:57;5.97;;;4.53;;
43337;SDS011;28933;52.492;13.434;2023-07-29T00:21:43;5.57;;;4.05;;
43337;SDS011;28933;52.492;13.434;2023-07-29T00:24:29;8.68;;;5.15;;
43337;SDS011;28933;52.492;13.434;2023-07-29T00:27:15;6.82;;;4.32;;
43337;SDS011;28933;52.492;13.434;2023-07-29T00:30:01;6.57;;;4.13;;
43337;SDS011;28933;52.492;13.434;2023-07-29T00:32:47;8.10;;;4.53;;
43337;SDS011;28933;52.492;13.434;2023-07-29T00:35:33;8.18;;;5.30;;
43337;SDS011;28933;52.492;13.434;2023-07-29T00:38:20;7.07;;;4.70;;
43337;SDS011;28933;52.492;13.434;2023-07-29T00:41:05;6.90;;;4.80;;
43337;SDS011;28933;52.492;13.434;2023-07-29T00:43:53;7.97;;;5.05;;
43337;SDS011;28933;52.492;13.434;2023-07-29T00:46:39;6.88;;;4.85;;
43337;SDS011;28933;52.492;13.434;2023-07-29T00:49:27;7.63;;;4.75;;
43337;SDS011;28933;52.492;13.434;2023-07-29T00:52:13;7.63;;;5.00;;
43337;SDS011;28933;52.492;13.434;2023-07-29T00:54:59;7.35;;;5.22;;
43337;SDS011;28933;52.492;13.434;2023-07-29T00:57:45;9.35;;;6.22;;
43337;SDS011;28933;52.492;13.434;2023-07-29T01:00:33;8.27;;;5.30;;
43337;SDS011;28933;52.492;13.434;2023-07-29T01:03:19;6.97;;;5.40;;
43337;SDS011;28933;52.492;13.434;2023-07-29T01:06:15;7.32;;;5.35;;
43337;SDS011;28933;52.492;13.434;2023-07-29T01:09:14;7.90;;;5.50;;
43337;SDS011;28933;52.492;13.434;2023-07-29T01:15:25;8.32;;;5.18;;
43337;SDS011;28933;52.492;13.434;2023-07-29T01:18:20;7.22;;;5.60;;
43337;SDS011;28933;52.492;13.434;2023-07-29T01:21:09;8.90;;;6.07;;
43337;SDS011;28933;52.492;13.434;2023-07-29T01:23:58;8.07;;;5.60;;
43337;SDS011;28933;52.492;13.434;2023-07-29T01:26:46;10.52;;;6.15;;
43337;SDS011;28933;52.492;13.434;2023-07-29T01:29:32;8.55;;;5.68;;
43337;SDS011;28933;52.492;13.434;2023-07-29T01:38:35;8.18;;;5.20;;
43337;SDS011;28933;52.492;13.434;2023-07-29T01:41:23;7.00;;;5.15;;
43337;SDS011;28933;52.492;13.434;2023-07-29T01:44:10;8.48;;;6.07;;
43337;SDS011;28933;52.492;13.434;2023-07-29T01:46:57;9.10;;;5.53;;
43337;SDS011;28933;52.492;13.434;2023-07-29T01:49:43;7.55;;;5.57;;
43337;SDS011;28933;52.492;13.434;2023-07-29T01:52:29;8.75;;;5.47;;
43337;SDS011;28933;52.492;13.434;2023-07-29T01:55:15;10.80;;;5.88;;
43337;SDS011;28933;52.492;13.434;2023-07-29T01:58:01;9.05;;;5.47;;
43337;SDS011;28933;52.492;13.434;2023-07-29T02:00:47;6.95;;;5.32;;
43337;SDS011;28933;52.492;13.434;2023-07-29T02:03:33;8.57;;;5.38;;
43337;SDS011;28933;52.492;13.434;2023-07-29T02:06:19;9.27;;;5.80;;
43337;SDS011;28933;52.492;13.434;2023-07-29T02:09:05;7.10;;;4.47;;
43337;SDS011;28933;52.492;13.434;2023-07-29T02:11:51;7.60;;;5.85;;
43337;SDS011;28933;52.492;13.434;2023-07-29T02:14:37;8.30;;;5.47;;
43337;SDS011;28933;52.492;13.434;2023-07-29T02:17:23;7.00;;;5.40;;
43337;SDS011;28933;52.492;13.434;2023-07-29T02:20:09;10.48;;;5.15;;
43337;SDS011;28933;52.492;13.434;2023-07-29T02:22:56;7.28;;;5.60;;
43337;SDS011;28933;52.492;13.434;2023-07-29T02:25:41;10.57;;;5.85;;
43337;SDS011;28933;52.492;13.434;2023-07-29T02:28:27;6.50;;;5.15;;
43337;SDS011;28933;52.492;13.434;2023-07-29T02:34:07;8.23;;;5.95;;
43337;SDS011;28933;52.492;13.434;2023-07-29T02:36:52;7.72;;;5.53;;
43337;SDS011;28933;52.492;13.434;2023-07-29T02:39:38;7.38;;;5.35;;
43337;SDS011;28933;52.492;13.434;2023-07-29T02:42:24;7.32;;;5.25;;
43337;SDS011;28933;52.492;13.434;2023-07-29T02:45:10;7.45;;;5.60;;
43337;SDS011;28933;52.492;13.434;2023-07-29T02:47:57;8.50;;;5.80;;
43337;SDS011;28933;52.492;13.434;2023-07-29T02:50:42;8.18;;;5.57;;
43337;SDS011;28933;52.492;13.434;2023-07-29T02:53:28;8.40;;;5.63;;
43337;SDS011;28933;52.492;13.434;2023-07-29T02:56:14;7.20;;;5.00;;
43337;SDS011;28933;52.492;13.434;2023-07-29T02:59:00;8.32;;;5.70;;
43337;SDS011;28933;52.492;13.434;2023-07-29T03:01:46;6.82;;;5.13;;
43337;SDS011;28933;52.492;13.434;2023-07-29T03:04:32;9.38;;;5.95;;
43337;SDS011;28933;52.492;13.434;2023-07-29T03:07:18;7.95;;;5.32;;
43337;SDS011;28933;52.492;13.434;2023-07-29T03:10:05;7.65;;;5.45;;
43337;SDS011;28933;52.492;13.434;2023-07-29T03:12:55;9.73;;;5.63;;
43337;SDS011;28933;52.492;13.434;2023-07-29T03:15:41;9.25;;;6.53;;
43337;SDS011;28933;52.492;13.434;2023-07-29T03:18:27;8.95;;;5.88;;
43337;SDS011;28933;52.492;13.434;2023-07-29T03:21:13;7.45;;;5.60;;
43337;SDS011;28933;52.492;13.434;2023-07-29T03:23:59;7.43;;;5.90;;
43337;SDS011;28933;52.492;13.434;2023-07-29T03:26:45;6.47;;;5.00;;
43337;SDS011;28933;52.492;13.434;2023-07-29T03:29:31;7.03;;;5.50;;
43337;SDS011;28933;52.492;13.434;2023-07-29T03:32:17;7.95;;;5.50;;
43337;SDS011;28933;52.492;13.434;2023-07-29T03:35:03;8.45;;;5.65;;
43337;SDS011;28933;52.492;13.434;2023-07-29T03:37:49;8.55;;;5.72;;
43337;SDS011;28933;52.492;13.434;2023-07-29T03:40:35;8.35;;;5.75;;
43337;SDS011;28933;52.492;13.434;2023-07-29T03:43:21;7.07;;;5.55;;
43337;SDS011;28933;52.492;13.434;2023-07-29T03:46:07;7.22;;;5.18;;
43337;SDS011;28933;52.492;13.434;2023-07-29T03:48:53;7.45;;;5.43;;
43337;SDS011;28933;52.492;13.434;2023-07-29T03:51:39;9.32;;;6.38;;
43337;SDS011;28933;52.492;13.434;2023-07-29T03:54:25;5.95;;;4.95;;
43337;SDS011;28933;52.492;13.434;2023-07-29T03:57:11;8.48;;;5.38;;
43337;SDS011;28933;52.492;13.434;2023-07-29T03:59:57;7.50;;;5.95;;
43337;SDS011;28933;52.492;13.434;2023-07-29T04:02:43;8.65;;;5.80;;
43337;SDS011;28933;52.492;13.434;2023-07-29T04:05:30;6.93;;;4.82;;
43337;SDS011;28933;52.492;13.434;2023-07-29T04:08:16;6.50;;;5.05;;
43337;SDS011;28933;52.492;13.434;2023-07-29T04:11:03;7.15;;;5.68;;
43337;SDS011;28933;52.492;13.434;2023-07-29T04:13:48;7.88;;;5.68;;
43337;SDS011;28933;52.492;13.434;2023-07-29T04:16:34;7.45;;;5.60;;
43337;SDS011;28933;52.492;13.434;2023-07-29T04:19:20;7.60;;;5.72;;
43337;SDS011;28933;52.492;13.434;2023-07-29T04:22:07;7.25;;;5.20;;
43337;SDS011;28933;52.492;13.434;2023-07-29T04:24:53;8.15;;;5.20;;
43337;SDS011;28933;52.492;13.434;2023-07-29T04:27:39;7.82;;;5.55;;
43337;SDS011;28933;52.492;13.434;2023-07-29T04:30:25;8.73;;;5.60;;
43337;SDS011;28933;52.492;13.434;2023-07-29T04:33:11;7.75;;;5.70;;
43337;SDS011;28933;52.492;13.434;2023-07-29T04:35:57;6.38;;;5.07;;
43337;SDS011;28933;52.492;13.434;2023-07-29T04:38:42;8.07;;;5.53;;
43337;SDS011;28933;52.492;13.434;2023-07-29T04:41:28;6.88;;;5.45;;
43337;SDS011;28933;52.492;13.434;2023-07-29T04:44:14;6.22;;;4.97;;
43337;SDS011;28933;52.492;13.434;2023-07-29T04:47:00;7.75;;;5.35;;
43337;SDS011;28933;52.492;13.434;2023-07-29T04:49:46;7.60;;;4.65;;
43337;SDS011;28933;52.492;13.434;2023-07-29T04:52:32;6.72;;;4.85;;
43337;SDS011;28933;52.492;13.434;2023-07-29T04:55:18;7.55;;;4.57;;
43337;SDS011;28933;52.492;13.434;2023-07-29T04:58:04;6.07;;;4.90;;
43337;SDS011;28933;52.492;13.434;2023-07-29T05:00:50;6.68;;;5.00;;
43337;SDS011;28933;52.492;13.434;2023-07-29T05:03:36;7.10;;;5.18;;
43337;SDS011;28933;52.492;13.434;2023-07-29T05:06:22;7.60;;;4.75;;
43337;SDS011;28933;52.492;13.434;2023-07-29T05:09:14;7.68;;;5.18;;
43337;SDS011;28933;52.492;13.434;2023-07-29T05:12:01;6.68;;;4.68;;
43337;SDS011;28933;52.492;13.434;2023-07-29T05:14:47;5.75;;;4.00;;
43337;SDS011;28933;52.492;13.434;2023-07-29T05:17:33;6.00;;;4.45;;
43337;SDS011;28933;52.492;13.434;2023-07-29T05:20:19;7.18;;;5.80;;
43337;SDS011;28933;52.492;13.434;2023-07-29T05:23:05;5.38;;;4.40;;
43337;SDS011;28933;52.492;13.434;2023-07-29T05:25:51;8.00;;;4.95;;
43337;SDS011;28933;52.492;13.434;2023-07-29T05:28:37;6.28;;;4.25;;
43337;SDS011;28933;52.492;13.434;2023-07-29T05:31:23;5.50;;;4.20;;
43337;SDS011;28933;52.492;13.434;2023-07-29T05:34:09;5.50;;;4.45;;
43337;SDS011;28933;52.492;13.434;2023-07-29T05:36:55;6.32;;;4.18;;
43337;SDS011;28933;52.492;13.434;2023-07-29T05:39:41;5.65;;;4.40;;
43337;SDS011;28933;52.492;13.434;2023-07-29T05:42:27;5.60;;;4.43;;
43337;SDS011;28933;52.492;13.434;2023-07-29T05:45:13;6.40;;;3.28;;
43337;SDS011;28933;52.492;13.434;2023-07-29T05:47:59;7.63;;;4.03;;
43337;SDS011;28933;52.492;13.434;2023-07-29T05:50:45;6.22;;;3.50;;
43337;SDS011;28933;52.492;13.434;2023-07-29T05:53:31;4.85;;;3.85;;
43337;SDS011;28933;52.492;13.434;2023-07-29T05:56:17;6.07;;;3.92;;
43337;SDS011;28933;52.492;13.434;2023-07-29T05:59:03;5.40;;;3.75;;
43337;SDS011;28933;52.492;13.434;2023-07-29T06:01:49;5.40;;;4.20;;
43337;SDS011;28933;52.492;13.434;2023-07-29T06:04:35;6.50;;;4.05;;
43337;SDS011;28933;52.492;13.434;2023-07-29T06:07:21;6.32;;;4.05;;
43337;SDS011;28933;52.492;13.434;2023-07-29T06:10:07;5.72;;;3.88;;
43337;SDS011;28933;52.492;13.434;2023-07-29T06:12:53;4.72;;;3.88;;
43337;SDS011;28933;52.492;13.434;2023-07-29T06:15:39;5.68;;;3.78;;
43337;SDS011;28933;52.492;13.434;2023-07-29T06:18:25;4.88;;;3.55;;
43337;SDS011;28933;52.492;13.434;2023-07-29T06:21:11;7.00;;;3.80;;
43337;SDS011;28933;52.492;13.434;2023-07-29T06:24:02;4.80;;;3.40;;
43337;SDS011;28933;52.492;13.434;2023-07-29T06:26:48;10.50;;;3.85;;
43337;SDS011;28933;52.492;13.434;2023-07-29T06:29:34;3.67;;;2.95;;
43337;SDS011;28933;52.492;13.434;2023-07-29T06:32:20;5.80;;;3.47;;
43337;SDS011;28933;52.492;13.434;2023-07-29T06:35:06;5.53;;;3.22;;
43337;SDS011;28933;52.492;13.434;2023-07-29T06:37:52;4.70;;;3.42;;
43337;SDS011;28933;52.492;13.434;2023-07-29T06:40:38;4.85;;;3.35;;
43337;SDS011;28933;52.492;13.434;2023-07-29T06:43:24;4.88;;;3.30;;
43337;SDS011;28933;52.492;13.434;2023-07-29T06:46:10;5.22;;;3.35;;
43337;SDS011;28933;52.492;13.434;2023-07-29T06:48:56;5.40;;;3.22;;
43337;SDS011;28933;52.492;13.434;2023-07-29T06:51:42;5.75;;;2.95;;
43337;SDS011;28933;52.492;13.434;2023-07-29T06:54:28;3.67;;;2.92;;
43337;SDS011;28933;52.492;13.434;2023-07-29T06:57:14;3.80;;;3.05;;
43337;SDS011;28933;52.492;13.434;2023-07-29T07:00:00;4.15;;;2.92;;
43337;SDS011;28933;52.492;13.434;2023-07-29T07:02:46;3.63;;;2.72;;
43337;SDS011;28933;52.492;13.434;2023-07-29T07:05:32;4.45;;;2.97;;
43337;SDS011;28933;52.492;13.434;2023-07-29T07:08:18;5.53;;;3.65;;
43337;SDS011;28933;52.492;13.434;2023-07-29T07:11:04;5.47;;;3.63;;
43337;SDS011;28933;52.492;13.434;2023-07-29T07:13:50;5.45;;;2.95;;
43337;SDS011;28933;52.492;13.434;2023-07-29T07:16:36;4.20;;;3.22;;
43337;SDS011;28933;52.492;13.434;2023-07-29T07:19:24;5.32;;;3.28;;
43337;SDS011;28933;52.492;13.434;2023-07-29T07:22:10;5.55;;;3.60;;
43337;SDS011;28933;52.492;13.434;2023-07-29T07:24:56;5.65;;;2.95;;
43337;SDS011;28933;52.492;13.434;2023-07-29T07:27:42;8.07;;;3.55;;
43337;SDS011;28933;52.492;13.434;2023-07-29T07:30:28;7.00;;;3.97;;
43337;SDS011;28933;52.492;13.434;2023-07-29T07:33:14;14.05;;;4.90;;
43337;SDS011;28933;52.492;13.434;2023-07-29T07:35:59;9.55;;;3.72;;
43337;SDS011;28933;52.492;13.434;2023-07-29T07:38:45;6.22;;;3.13;;
43337;SDS011;28933;52.492;13.434;2023-07-29T07:41:31;13.38;;;3.35;;
43337;SDS011;28933;52.492;13.434;2023-07-29T07:44:17;7.43;;;3.60;;
43337;SDS011;28933;52.492;13.434;2023-07-29T07:47:05;4.15;;;3.00;;
43337;SDS011;28933;52.492;13.434;2023-07-29T07:49:51;7.65;;;3.05;;
43337;SDS011;28933;52.492;13.434;2023-07-29T07:52:37;7.90;;;3.63;;
43337;SDS011;28933;52.492;13.434;2023-07-29T07:55:23;7.57;;;3.30;;
43337;SDS011;28933;52.492;13.434;2023-07-29T07:58:09;4.18;;;2.72;;
43337;SDS011;28933;52.492;13.434;2023-07-29T08:01:04;5.35;;;3.15;;
43337;SDS011;28933;52.492;13.434;2023-07-29T08:03:51;5.07;;;2.85;;
43337;SDS011;28933;52.492;13.434;2023-07-29T08:06:37;4.05;;;2.70;;
43337;SDS011;28933;52.492;13.434;2023-07-29T08:09:23;4.38;;;2.72;;
43337;SDS011;28933;52.492;13.434;2023-07-29T08:12:09;5.50;;;2.60;;
43337;SDS011;28933;52.492;13.434;2023-07-29T08:14:55;4.65;;;3.17;;
43337;SDS011;28933;52.492;13.434;2023-07-29T08:17:41;4.10;;;3.20;;
43337;SDS011;28933;52.492;13.434;2023-07-29T08:20:27;5.63;;;3.50;;
43337;SDS011;28933;52.492;13.434;2023-07-29T08:23:13;6.10;;;3.65;;
43337;SDS011;28933;52.492;13.434;2023-07-29T08:26:00;7.55;;;3.10;;
43337;SDS011;28933;52.492;13.434;2023-07-29T08:28:47;4.82;;;2.92;;
43337;SDS011;28933;52.492;13.434;2023-07-29T08:31:34;9.73;;;3.58;;
43337;SDS011;28933;52.492;13.434;2023-07-29T08:34:20;7.03;;;3.53;;
43337;SDS011;28933;52.492;13.434;2023-07-29T08:37:06;4.55;;;3.10;;
43337;SDS011;28933;52.492;13.434;2023-07-29T08:39:51;2.95;;;2.28;;
43337;SDS011;28933;52.492;13.434;2023-07-29T08:42:39;4.03;;;2.70;;
43337;SDS011;28933;52.492;13.434;2023-07-29T08:45:29;4.55;;;2.33;;
43337;SDS011;28933;52.492;13.434;2023-07-29T08:48:19;5.18;;;3.00;;
43337;SDS011;28933;52.492;13.434;2023-07-29T08:51:14;3.38;;;2.45;;
43337;SDS011;28933;52.492;13.434;2023-07-29T08:54:02;3.25;;;2.58;;
43337;SDS011;28933;52.492;13.434;2023-07-29T08:56:49;5.05;;;2.78;;
43337;SDS011;28933;52.492;13.434;2023-07-29T08:59:36;4.57;;;2.72;;
43337;SDS011;28933;52.492;13.434;2023-07-29T09:02:23;4.68;;;3.13;;
43337;SDS011;28933;52.492;13.434;2023-07-29T09:05:09;4.57;;;2.75;;
43337;SDS011;28933;52.492;13.434;2023-07-29T09:07:55;4.55;;;2.80;;
43337;SDS011;28933;52.492;13.434;2023-07-29T09:10:41;8.57;;;2.63;;
43337;SDS011;28933;52.492;13.434;2023-07-29T09:13:27;4.45;;;2.30;;
43337;SDS011;28933;52.492;13.434;2023-07-29T09:16:14;4.20;;;2.45;;
43337;SDS011;28933;52.492;13.434;2023-07-29T09:19:00;5.75;;;3.08;;
43337;SDS011;28933;52.492;13.434;2023-07-29T09:21:49;3.17;;;2.40;;
43337;SDS011;28933;52.492;13.434;2023-07-29T09:24:35;3.05;;;2.30;;
43337;SDS011;28933;52.492;13.434;2023-07-29T09:27:24;3.83;;;2.47;;
43337;SDS011;28933;52.492;13.434;2023-07-29T09:30:16;3.63;;;2.15;;
43337;SDS011;28933;52.492;13.434;2023-07-29T09:33:02;6.22;;;2.95;;
43337;SDS011;28933;52.492;13.434;2023-07-29T09:35:48;3.30;;;2.30;;
43337;SDS011;28933;52.492;13.434;2023-07-29T09:38:34;6.22;;;2.45;;
43337;SDS011;28933;52.492;13.434;2023-07-29T09:41:24;3.85;;;1.90;;
43337;SDS011;28933;52.492;13.434;2023-07-29T09:44:12;3.65;;;2.47;;
43337;SDS011;28933;52.492;13.434;2023-07-29T09:46:58;2.42;;;1.88;;
43337;SDS011;28933;52.492;13.434;2023-07-29T09:49:44;6.22;;;3.35;;
43337;SDS011;28933;52.492;13.434;2023-07-29T09:52:30;4.43;;;2.35;;
43337;SDS011;28933;52.492;13.434;2023-07-29T09:55:19;4.90;;;2.38;;
43337;SDS011;28933;52.492;13.434;2023-07-29T09:58:11;3.28;;;2.15;;
43337;SDS011;28933;52.492;13.434;2023-07-29T10:00:57;2.88;;;1.90;;
43337;SDS011;28933;52.492;13.434;2023-07-29T10:03:44;4.72;;;2.30;;
43337;SDS011;28933;52.492;13.434;2023-07-29T10:06:30;5.13;;;2.15;;
43337;SDS011;28933;52.492;13.434;2023-07-29T10:09:20;6.40;;;3.25;;
43337;SDS011;28933;52.492;13.434;2023-07-29T10:12:06;3.58;;;2.13;;
43337;SDS011;28933;52.492;13.434;2023-07-29T10:14:53;4.18;;;2.63;;
43337;SDS011;28933;52.492;13.434;2023-07-29T10:17:43;3.08;;;1.70;;
43337;SDS011;28933;52.492;13.434;2023-07-29T10:20:31;3.78;;;2.15;;
43337;SDS011;28933;52.492;13.434;2023-07-29T10:23:19;2.83;;;1.90;;
43337;SDS011;28933;52.492;13.434;2023-07-29T10:26:09;2.78;;;2.08;;
43337;SDS011;28933;52.492;13.434;2023-07-29T10:28:56;2.00;;;1.60;;
43337;SDS011;28933;52.492;13.434;2023-07-29T10:31:53;2.90;;;1.92;;
43337;SDS011;28933;52.492;13.434;2023-07-29T10:34:42;2.15;;;1.70;;
43337;SDS011;28933;52.492;13.434;2023-07-29T10:37:29;2.55;;;1.85;;
43337;SDS011;28933;52.492;13.434;2023-07-29T10:40:15;2.22;;;1.67;;
43337;SDS011;28933;52.492;13.434;2023-07-29T10:43:06;3.83;;;2.00;;
43337;SDS011;28933;52.492;13.434;2023-07-29T10:45:55;4.03;;;1.67;;
43337;SDS011;28933;52.492;13.434;2023-07-29T10:48:42;4.38;;;2.10;;
43337;SDS011;28933;52.492;13.434;2023-07-29T10:51:37;4.45;;;2.17;;
43337;SDS011;28933;52.492;13.434;2023-07-29T10:54:23;2.80;;;1.75;;
43337;SDS011;28933;52.492;13.434;2023-07-29T10:57:12;2.67;;;1.88;;
43337;SDS011;28933;52.492;13.434;2023-07-29T11:00:02;4.15;;;1.80;;
43337;SDS011;28933;52.492;13.434;2023-07-29T11:02:58;4.25;;;2.10;;
43337;SDS011;28933;52.492;13.434;2023-07-29T11:05:50;3.75;;;1.77;;
43337;SDS011;28933;52.492;13.434;2023-07-29T11:08:38;5.10;;;1.65;;
43337;SDS011;28933;52.492;13.434;2023-07-29T11:11:24;3.42;;;1.70;;
43337;SDS011;28933;52.492;13.434;2023-07-29T11:14:09;2.55;;;1.65;;
43337;SDS011;28933;52.492;13.434;2023-07-29T11:16:57;3.42;;;2.10;;
43337;SDS011;28933;52.492;13.434;2023-07-29T11:19:43;4.85;;;2.72;;
43337;SDS011;28933;52.492;13.434;2023-07-29T11:22:31;3.25;;;1.85;;
43337;SDS011;28933;52.492;13.434;2023-07-29T11:25:17;7.60;;;2.47;;
43337;SDS011;28933;52.492;13.434;2023-07-29T11:28:04;2.92;;;1.50;;
43337;SDS011;28933;52.492;13.434;2023-07-29T11:30:50;2.63;;;1.42;;
43337;SDS011;28933;52.492;13.434;2023-07-29T11:33:38;9.35;;;1.90;;
43337;SDS011;28933;52.492;13.434;2023-07-29T11:36:24;2.92;;;1.15;;
43337;SDS011;28933;52.492;13.434;2023-07-29T11:39:10;3.50;;;1.40;;
43337;SDS011;28933;52.492;13.434;2023-07-29T11:41:57;2.95;;;1.30;;
43337;SDS011;28933;52.492;13.434;2023-07-29T11:44:43;2.55;;;1.33;;
43337;SDS011;28933;52.492;13.434;2023-07-29T11:47:29;4.30;;;1.67;;
43337;SDS011;28933;52.492;13.434;2023-07-29T11:50:15;3.50;;;1.15;;
43337;SDS011;28933;52.492;13.434;2023-07-29T11:53:01;2.90;;;1.40;;
43337;SDS011;28933;52.492;13.434;2023-07-29T11:55:51;3.13;;;1.55;;
43337;SDS011;28933;52.492;13.434;2023-07-29T11:58:38;4.20;;;1.90;;
43337;SDS011;28933;52.492;13.434;2023-07-29T12:01:24;2.67;;;1.75;;
43337;SDS011;28933;52.492;13.434;2023-07-29T12:04:10;5.32;;;1.85;;
43337;SDS011;28933;52.492;13.434;2023-07-29T12:06:56;9.57;;;2.72;;
43337;SDS011;28933;52.492;13.434;2023-07-29T12:09:43;4.57;;;1.95;;
43337;SDS011;28933;52.492;13.434;2023-07-29T12:12:29;4.10;;;1.90;;
43337;SDS011;28933;52.492;13.434;2023-07-29T12:15:27;3.70;;;2.05;;
43337;SDS011;28933;52.492;13.434;2023-07-29T12:18:14;2.55;;;1.13;;
43337;SDS011;28933;52.492;13.434;2023-07-29T12:21:00;2.83;;;1.77;;
43337;SDS011;28933;52.492;13.434;2023-07-29T12:23:46;5.40;;;2.47;;
43337;SDS011;28933;52.492;13.434;2023-07-29T12:26:32;4.07;;;1.77;;
43337;SDS011;28933;52.492;13.434;2023-07-29T12:29:19;2.63;;;1.77;;
43337;SDS011;28933;52.492;13.434;2023-07-29T12:32:05;4.10;;;1.92;;
43337;SDS011;28933;52.492;13.434;2023-07-29T12:34:52;5.75;;;2.08;;
43337;SDS011;28933;52.492;13.434;2023-07-29T12:37:39;2.45;;;1.65;;
43337;SDS011;28933;52.492;13.434;2023-07-29T12:40:28;2.25;;;1.65;;
43337;SDS011;28933;52.492;13.434;2023-07-29T12:43:14;5.30;;;1.80;;
43337;SDS011;28933;52.492;13.434;2023-07-29T12:46:00;2.72;;;1.55;;
43337;SDS011;28933;52.492;13.434;2023-07-29T12:48:46;4.30;;;1.85;;
43337;SDS011;28933;52.492;13.434;2023-07-29T12:51:32;3.40;;;1.70;;
43337;SDS011;28933;52.492;13.434;2023-07-29T12:54:18;3.47;;;1.58;;
43337;SDS011;28933;52.492;13.434;2023-07-29T12:57:04;2.55;;;1.33;;
43337;SDS011;28933;52.492;13.434;2023-07-29T12:59:50;3.30;;;1.45;;
43337;SDS011;28933;52.492;13.434;2023-07-29T13:02:36;4.50;;;2.00;;
43337;SDS011;28933;52.492;13.434;2023-07-29T13:05:22;3.10;;;1.80;;
43337;SDS011;28933;52.492;13.434;2023-07-29T13:08:08;2.72;;;2.08;;
43337;SDS011;28933;52.492;13.434;2023-07-29T13:10:55;2.38;;;1.48;;
43337;SDS011;28933;52.492;13.434;2023-07-29T13:13:41;3.72;;;1.90;;
43337;SDS011;28933;52.492;13.434;2023-07-29T13:16:28;3.63;;;2.40;;
43337;SDS011;28933;52.492;13.434;2023-07-29T13:19:14;3.90;;;2.38;;
43337;SDS011;28933;52.492;13.434;2023-07-29T13:22:00;3.95;;;2.10;;
43337;SDS011;28933;52.492;13.434;2023-07-29T13:24:47;3.08;;;1.88;;
43337;SDS011;28933;52.492;13.434;2023-07-29T13:27:33;2.40;;;1.80;;
43337;SDS011;28933;52.492;13.434;2023-07-29T13:30:19;2.95;;;2.03;;
43337;SDS011;28933;52.492;13.434;2023-07-29T13:33:08;5.32;;;2.45;;
43337;SDS011;28933;52.492;13.434;2023-07-29T13:35:54;3.85;;;2.47;;
43337;SDS011;28933;52.492;13.434;2023-07-29T13:38:41;2.83;;;2.05;;
43337;SDS011;28933;52.492;13.434;2023-07-29T13:41:27;2.70;;;1.85;;
43337;SDS011;28933;52.492;13.434;2023-07-29T13:44:13;2.10;;;1.67;;
43337;SDS011;28933;52.492;13.434;2023-07-29T13:46:59;2.70;;;2.00;;
43337;SDS011;28933;52.492;13.434;2023-07-29T13:49:45;2.67;;;1.80;;
43337;SDS011;28933;52.492;13.434;2023-07-29T13:52:30;2.40;;;1.50;;
43337;SDS011;28933;52.492;13.434;2023-07-29T13:55:16;4.80;;;1.77;;
43337;SDS011;28933;52.492;13.434;2023-07-29T13:58:02;1.85;;;1.45;;
43337;SDS011;28933;52.492;13.434;2023-07-29T14:00:48;1.33;;;1.13;;
43337;SDS011;28933;52.492;13.434;2023-07-29T14:03:34;1.85;;;1.50;;
43337;SDS011;28933;52.492;13.434;2023-07-29T14:06:20;2.15;;;1.70;;
43337;SDS011;28933;52.492;13.434;2023-07-29T14:09:06;4.72;;;1.58;;
43337;SDS011;28933;52.492;13.434;2023-07-29T14:14:39;6.85;;;2.40;;
43337;SDS011;28933;52.492;13.434;2023-07-29T14:17:26;4.65;;;2.80;;
43337;SDS011;28933;52.492;13.434;2023-07-29T14:20:12;3.55;;;2.20;;
43337;SDS011;28933;52.492;13.434;2023-07-29T14:22:58;4.20;;;1.60;;
43337;SDS011;28933;52.492;13.434;2023-07-29T14:25:44;2.85;;;1.63;;
43337;SDS011;28933;52.492;13.434;2023-07-29T14:28:30;3.97;;;1.75;;
43337;SDS011;28933;52.492;13.434;2023-07-29T14:31:17;1.98;;;1.50;;
43337;SDS011;28933;52.492;13.434;2023-07-29T14:34:03;1.67;;;1.27;;
43337;SDS011;28933;52.492;13.434;2023-07-29T14:36:49;2.28;;;1.55;;
43337;SDS011;28933;52.492;13.434;2023-07-29T14:39:35;1.67;;;1.10;;
43337;SDS011;28933;52.492;13.434;2023-07-29T14:42:21;3.50;;;1.63;;
43337;SDS011;28933;52.492;13.434;2023-07-29T14:45:08;3.63;;;2.40;;
43337;SDS011;28933;52.492;13.434;2023-07-29T14:47:55;5.22;;;2.50;;
43337;SDS011;28933;52.492;13.434;2023-07-29T14:50:41;2.53;;;1.45;;
43337;SDS011;28933;52.492;13.434;2023-07-29T14:53:28;2.92;;;1.10;;
43337;SDS011;28933;52.492;13.434;2023-07-29T14:56:14;1.45;;;1.20;;
43337;SDS011;28933;52.492;13.434;2023-07-29T14:59:03;3.28;;;1.58;;
43337;SDS011;28933;52.492;13.434;2023-07-29T15:01:49;2.72;;;1.75;;
43337;SDS011;28933;52.492;13.434;2023-07-29T15:04:35;3.45;;;1.40;;
43337;SDS011;28933;52.492;13.434;2023-07-29T15:07:20;3.40;;;2.25;;
43337;SDS011;28933;52.492;13.434;2023-07-29T15:10:06;9.38;;;3.83;;
43337;SDS011;28933;52.492;13.434;2023-07-29T15:12:53;5.10;;;3.83;;
43337;SDS011;28933;52.492;13.434;2023-07-29T15:15:42;6.95;;;3.47;;
43337;SDS011;28933;52.492;13.434;2023-07-29T15:18:29;4.53;;;2.67;;
43337;SDS011;28933;52.492;13.434;2023-07-29T15:21:15;5.03;;;2.80;;
43337;SDS011;28933;52.492;13.434;2023-07-29T15:24:01;3.83;;;2.03;;
43337;SDS011;28933;52.492;13.434;2023-07-29T15:26:47;4.25;;;1.52;;
43337;SDS011;28933;52.492;13.434;2023-07-29T15:29:33;2.42;;;1.65;;
43337;SDS011;28933;52.492;13.434;2023-07-29T15:32:19;2.78;;;1.70;;
43337;SDS011;28933;52.492;13.434;2023-07-29T15:35:05;3.10;;;1.75;;
43337;SDS011;28933;52.492;13.434;2023-07-29T15:37:51;3.28;;;2.03;;
43337;SDS011;28933;52.492;13.434;2023-07-29T15:40:37;3.92;;;2.63;;
43337;SDS011;28933;52.492;13.434;2023-07-29T15:43:23;6.65;;;2.33;;
43337;SDS011;28933;52.492;13.434;2023-07-29T15:46:09;5.43;;;1.88;;
43337;SDS011;28933;52.492;13.434;2023-07-29T15:48:55;4.05;;;1.30;;
43337;SDS011;28933;52.492;13.434;2023-07-29T15:51:44;3.28;;;1.63;;
43337;SDS011;28933;52.492;13.434;2023-07-29T15:54:30;4.85;;;2.30;;
43337;SDS011;28933;52.492;13.434;2023-07-29T15:57:16;4.60;;;2.28;;
43337;SDS011;28933;52.492;13.434;2023-07-29T16:00:03;7.43;;;2.72;;
43337;SDS011;28933;52.492;13.434;2023-07-29T16:02:50;5.10;;;2.20;;
43337;SDS011;28933;52.492;13.434;2023-07-29T16:05:36;8.32;;;3.20;;
43337;SDS011;28933;52.492;13.434;2023-07-29T16:08:22;5.20;;;2.70;;
43337;SDS011;28933;52.492;13.434;2023-07-29T16:11:08;5.03;;;2.97;;
43337;SDS011;28933;52.492;13.434;2023-07-29T16:13:54;3.83;;;2.20;;
43337;SDS011;28933;52.492;13.434;2023-07-29T16:16:39;5.70;;;2.20;;
43337;SDS011;28933;52.492;13.434;2023-07-29T16:19:26;6.78;;;2.10;;
43337;SDS011;28933;52.492;13.434;2023-07-29T16:22:13;3.28;;;2.25;;
43337;SDS011;28933;52.492;13.434;2023-07-29T16:24:59;5.50;;;2.53;;
43337;SDS011;28933;52.492;13.434;2023-07-29T16:27:45;4.15;;;1.80;;
43337;SDS011;28933;52.492;13.434;2023-07-29T16:30:31;3.65;;;2.03;;
43337;SDS011;28933;52.492;13.434;2023-07-29T16:33:17;3.45;;;2.22;;
43337;SDS011;28933;52.492;13.434;2023-07-29T16:36:03;3.67;;;2.40;;
43337;SDS011;28933;52.492;13.434;2023-07-29T16:38:50;15.10;;;2.95;;
43337;SDS011;28933;52.492;13.434;2023-07-29T16:41:36;8.65;;;3.08;;
43337;SDS011;28933;52.492;13.434;2023-07-29T16:44:22;7.32;;;3.45;;